Time;durP1;ratioP1;P1;durP2;ratioP2;P2;SDS_P1;SDS_P2;PMS_P1;PMS_P2;Temp;Humidity;BMP_temperature;BMP_pressure;BME280_temperature;BME280_humidity;BME280_pressure;Samples;Min_cycle;Max_cycle;Signal;HPM_P1;HPM_P2
2023/11/30 00:01:38;;;;;;;24.63;19.13;;;2.90;99.90;;;;;;5080700;28;20619;-75
2023/11/30 00:04:24;;;;;;;24.80;18.40;;;2.90;99.90;;;;;;5086287;28;20584;-75
2023/11/30 00:07:11;;;;;;;25.00;19.83;;;2.90;99.90;;;;;;5078937;28;20277;-75
2023/11/30 00:09:56;;;;;;;23.15;18.23;;;3.00;99.90;;;;;;5083801;28;20207;-75
2023/11/30 00:12:42;;;;;;;23.00;17.27;;;3.00;99.90;;;;;;5085170;28;20294;-75
2023/11/30 00:15:28;;;;;;;23.35;17.92;;;3.00;99.90;;;;;;5088391;28;20195;-75
2023/11/30 00:18:15;;;;;;;27.83;19.42;;;3.00;99.90;;;;;;5071933;28;20210;-75
2023/11/30 00:21:00;;;;;;;30.80;20.65;;;2.90;99.90;;;;;;5080795;28;20206;-75
2023/11/30 00:23:46;;;;;;;24.30;19.05;;;2.90;99.90;;;;;;5085815;28;20232;-75
2023/11/30 00:26:32;;;;;;;23.35;19.98;;;2.90;99.90;;;;;;5088091;28;20777;-75
2023/11/30 00:29:17;;;;;;;25.00;20.00;;;2.90;99.90;;;;;;5080322;28;20693;-75
2023/11/30 00:32:03;;;;;;;27.75;19.73;;;2.90;99.90;;;;;;5089155;28;20215;-75
2023/11/30 00:34:51;;;;;;;26.30;21.10;;;2.90;99.90;;;;;;5079412;28;20204;-75
2023/11/30 00:37:36;;;;;;;23.83;18.10;;;2.90;99.90;;;;;;5081355;28;20207;-75
2023/11/30 00:40:22;;;;;;;24.00;19.60;;;3.00;99.90;;;;;;5089760;28;20223;-75
2023/11/30 00:43:08;;;;;;;23.25;17.55;;;3.00;99.90;;;;;;5078595;28;20219;-75
2023/11/30 00:45:53;;;;;;;25.30;18.52;;;3.00;99.90;;;;;;5091468;28;20274;-75
2023/11/30 00:48:39;;;;;;;24.50;18.90;;;2.90;99.90;;;;;;5090443;28;20199;-75
2023/11/30 00:51:28;;;;;;;25.65;19.42;;;2.90;99.90;;;;;;5092188;28;20203;-75
2023/11/30 00:54:14;;;;;;;25.73;20.23;;;2.80;99.90;;;;;;5080735;28;20318;-75
2023/11/30 00:56:59;;;;;;;25.17;19.40;;;2.80;99.90;;;;;;5092181;28;20194;-75
2023/11/30 00:59:45;;;;;;;24.92;18.40;;;2.90;99.90;;;;;;5080342;28;20216;-75
2023/11/30 01:02:31;;;;;;;25.35;19.00;;;2.90;99.90;;;;;;5084722;28;20236;-75
2023/11/30 01:05:17;;;;;;;21.60;17.35;;;2.90;99.90;;;;;;5086044;28;20200;-75
2023/11/30 01:08:04;;;;;;;22.88;17.48;;;2.90;99.90;;;;;;5087662;28;20215;-74
2023/11/30 01:10:49;;;;;;;21.88;17.40;;;2.90;99.90;;;;;;5089938;28;20634;-76
2023/11/30 01:13:35;;;;;;;21.45;17.45;;;3.00;99.90;;;;;;5089657;28;20218;-75
2023/11/30 01:16:21;;;;;;;26.48;20.17;;;3.00;99.90;;;;;;5092492;28;20277;-75
2023/11/30 01:19:07;;;;;;;25.70;19.80;;;3.00;99.90;;;;;;5076905;28;20290;-75
2023/11/30 01:21:52;;;;;;;24.67;17.50;;;3.00;99.90;;;;;;5084910;28;20231;-75
2023/11/30 01:24:39;;;;;;;23.45;17.27;;;3.00;99.90;;;;;;5091602;28;20198;-76
2023/11/30 01:27:25;;;;;;;25.13;19.40;;;3.10;99.90;;;;;;5091845;28;20720;-76
2023/11/30 01:30:12;;;;;;;21.17;16.52;;;3.10;99.90;;;;;;5086440;28;20768;-76
2023/11/30 01:32:58;;;;;;;24.38;18.60;;;3.10;99.90;;;;;;5093313;28;20234;-77
2023/11/30 01:35:43;;;;;;;23.15;18.20;;;3.10;99.90;;;;;;5091706;28;20278;-74
2023/11/30 01:38:29;;;;;;;26.17;20.27;;;3.00;99.90;;;;;;5076836;28;20254;-76
2023/11/30 01:41:16;;;;;;;25.27;19.15;;;3.00;99.90;;;;;;5082588;28;20751;-76
2023/11/30 01:44:02;;;;;;;24.95;18.90;;;3.10;99.90;;;;;;5089346;28;20219;-77
2023/11/30 01:46:48;;;;;;;25.77;20.40;;;3.10;99.90;;;;;;5090556;28;20207;-77
2023/11/30 01:49:34;;;;;;;26.83;19.38;;;3.10;99.90;;;;;;5091803;28;20202;-77
2023/11/30 01:52:20;;;;;;;26.30;20.20;;;3.10;99.90;;;;;;5082432;28;20257;-77
2023/11/30 01:55:07;;;;;;;28.90;20.30;;;3.10;99.90;;;;;;5087706;28;20191;-76
2023/11/30 01:57:54;;;;;;;27.27;20.70;;;3.10;99.90;;;;;;5086251;28;20207;-76
2023/11/30 02:00:39;;;;;;;24.42;19.65;;;3.10;99.90;;;;;;5080699;28;20251;-77
2023/11/30 02:03:25;;;;;;;30.58;21.08;;;3.20;99.90;;;;;;5085853;28;20338;-77
2023/11/30 02:06:15;;;;;;;29.67;20.55;;;3.00;99.90;;;;;;5088610;28;20537;-76
2023/11/30 02:09:01;;;;;;;24.17;19.00;;;3.10;99.90;;;;;;5085243;28;20208;-76
2023/11/30 02:11:47;;;;;;;24.25;19.02;;;3.10;99.90;;;;;;5088137;28;20701;-75
2023/11/30 02:14:35;;;;;;;22.85;17.40;;;3.10;99.90;;;;;;5084983;28;20265;-75
2023/11/30 02:17:21;;;;;;;23.58;18.40;;;3.00;99.90;;;;;;5080181;28;20199;-76
2023/11/30 02:20:08;;;;;;;25.13;18.70;;;3.00;99.90;;;;;;5082705;28;20337;-77
2023/11/30 02:22:54;;;;;;;25.83;17.63;;;3.00;99.90;;;;;;5090703;28;20275;-76
2023/11/30 02:25:40;;;;;;;24.90;19.38;;;3.10;99.90;;;;;;5092661;28;20270;-76
2023/11/30 02:28:25;;;;;;;26.42;18.58;;;3.20;99.90;;;;;;5087232;28;20282;-76
2023/11/30 02:31:11;;;;;;;24.73;19.08;;;3.20;99.90;;;;;;5079738;28;20194;-77
2023/11/30 02:33:57;;;;;;;26.15;19.88;;;3.10;99.90;;;;;;5091548;28;20345;-77
2023/11/30 02:36:43;;;;;;;28.77;20.75;;;3.10;99.90;;;;;;5080813;28;20686;-77
2023/11/30 02:39:30;;;;;;;24.00;18.73;;;3.00;99.90;;;;;;5080980;28;20208;-77
2023/11/30 02:42:15;;;;;;;24.50;18.55;;;3.00;99.90;;;;;;5079371;28;20226;-77
2023/11/30 02:45:01;;;;;;;25.90;17.95;;;3.00;99.90;;;;;;5076579;28;20203;-77
2023/11/30 02:47:46;;;;;;;26.67;19.52;;;3.00;99.90;;;;;;5091557;28;20350;-77
2023/11/30 02:50:32;;;;;;;24.20;18.33;;;3.10;99.90;;;;;;5092376;28;20202;-77
2023/11/30 02:53:18;;;;;;;24.67;18.98;;;3.20;99.90;;;;;;5088332;28;20709;-76
2023/11/30 02:56:06;;;;;;;27.00;20.58;;;3.20;99.90;;;;;;5092045;28;20690;-77
2023/11/30 02:58:52;;;;;;;24.08;19.50;;;3.20;99.90;;;;;;5075106;28;20857;-77
2023/11/30 03:01:44;;;;;;;27.10;20.90;;;3.30;99.90;;;;;;5076290;28;20718;-77
2023/11/30 03:04:29;;;;;;;27.27;20.35;;;3.30;99.90;;;;;;5085660;28;20203;-76
2023/11/30 03:07:15;;;;;;;23.42;17.92;;;3.20;99.90;;;;;;5073077;28;20246;-77
2023/11/30 03:10:01;;;;;;;24.10;18.52;;;3.10;99.90;;;;;;5088527;28;20203;-76
2023/11/30 03:12:47;;;;;;;24.63;19.40;;;3.10;99.90;;;;;;5083496;28;20220;-76
2023/11/30 03:15:33;;;;;;;24.13;19.10;;;3.10;99.90;;;;;;5075984;28;20262;-76
2023/11/30 03:18:18;;;;;;;26.65;20.35;;;3.00;99.90;;;;;;5072336;28;20245;-75
2023/11/30 03:21:04;;;;;;;28.08;19.45;;;3.00;99.90;;;;;;5065571;28;20196;-77
2023/11/30 03:23:51;;;;;;;29.27;20.40;;;2.90;99.90;;;;;;5070847;28;20228;-77
2023/11/30 03:26:37;;;;;;;27.67;20.08;;;2.90;99.90;;;;;;5069946;28;20582;-76
2023/11/30 03:29:24;;;;;;;27.45;20.55;;;2.90;99.90;;;;;;5072372;28;20211;-75
2023/11/30 03:32:09;;;;;;;24.83;19.55;;;3.00;99.90;;;;;;5065063;28;20225;-77
2023/11/30 03:34:55;;;;;;;24.25;19.52;;;3.00;99.90;;;;;;5072176;28;20212;-76
2023/11/30 03:37:43;;;;;;;26.65;19.17;;;3.10;99.90;;;;;;5072695;28;20196;-76
2023/11/30 03:40:29;;;;;;;25.50;19.15;;;3.00;99.90;;;;;;5057802;28;20331;-75
2023/11/30 03:43:14;;;;;;;25.83;18.55;;;3.00;99.90;;;;;;5065842;28;20224;-77
2023/11/30 03:46:02;;;;;;;25.70;19.20;;;3.10;99.90;;;;;;5079685;28;20208;-77
2023/11/30 03:48:47;;;;;;;25.38;18.70;;;3.10;99.90;;;;;;5071974;28;20295;-75
2023/11/30 03:51:33;;;;;;;25.55;19.17;;;3.00;99.90;;;;;;5079952;28;20622;-77
2023/11/30 03:54:18;;;;;;;24.70;18.95;;;3.00;99.90;;;;;;5077748;28;20196;-76
2023/11/30 03:57:05;;;;;;;26.55;17.77;;;3.20;99.90;;;;;;5059353;28;20335;-77
2023/11/30 03:59:51;;;;;;;26.63;18.50;;;3.20;99.90;;;;;;5071442;28;20250;-77
2023/11/30 04:02:37;;;;;;;22.75;17.08;;;3.20;99.90;;;;;;5068856;28;20224;-76
2023/11/30 04:05:23;;;;;;;26.10;18.20;;;3.10;99.90;;;;;;5072043;28;20682;-77
2023/11/30 04:08:09;;;;;;;27.80;18.98;;;3.10;99.90;;;;;;5079393;28;20223;-77
2023/11/30 04:10:54;;;;;;;25.90;18.77;;;3.10;99.90;;;;;;5080429;28;20227;-76
2023/11/30 04:13:40;;;;;;;22.17;18.25;;;3.10;99.90;;;;;;5071888;28;20222;-75
2023/11/30 04:16:25;;;;;;;26.38;19.23;;;3.10;99.90;;;;;;5072335;28;20292;-77
2023/11/30 04:19:12;;;;;;;26.60;17.80;;;3.00;99.90;;;;;;5074424;28;20318;-77
2023/11/30 04:21:58;;;;;;;25.65;17.45;;;3.10;99.90;;;;;;5078301;28;20215;-76
2023/11/30 04:24:44;;;;;;;22.90;17.35;;;3.10;99.90;;;;;;5078004;28;20254;-77
2023/11/30 04:27:29;;;;;;;30.25;20.85;;;3.10;99.90;;;;;;5072312;28;20208;-77
2023/11/30 04:30:15;;;;;;;25.95;17.80;;;3.00;99.90;;;;;;5072255;28;20203;-77
2023/11/30 04:33:01;;;;;;;20.48;15.95;;;3.00;99.90;;;;;;5079840;28;20228;-76
2023/11/30 04:35:48;;;;;;;23.73;17.38;;;3.00;99.90;;;;;;5071501;28;20212;-76
2023/11/30 04:38:33;;;;;;;21.23;15.45;;;2.90;99.90;;;;;;5075273;28;20327;-76
2023/11/30 04:41:19;;;;;;;22.00;17.02;;;2.90;99.90;;;;;;5063632;28;20205;-77
2023/11/30 04:44:05;;;;;;;23.38;16.17;;;3.00;99.90;;;;;;5071325;28;20215;-77
2023/11/30 04:46:51;;;;;;;21.80;16.40;;;3.00;99.90;;;;;;5067482;28;20251;-77
2023/11/30 04:49:37;;;;;;;20.92;15.93;;;2.90;99.90;;;;;;5082686;28;20200;-77
2023/11/30 04:52:24;;;;;;;20.67;15.80;;;2.90;99.90;;;;;;5064782;28;20320;-76
2023/11/30 04:55:09;;;;;;;18.95;14.35;;;2.90;99.90;;;;;;5067814;28;20258;-77
2023/11/30 04:57:55;;;;;;;16.83;12.80;;;2.90;99.90;;;;;;5073161;28;20579;-77
2023/11/30 05:00:42;;;;;;;15.88;13.60;;;3.00;99.90;;;;;;5080761;28;20582;-77
2023/11/30 05:03:27;;;;;;;17.90;12.65;;;2.90;99.90;;;;;;5076856;28;20835;-74
2023/11/30 05:06:13;;;;;;;16.95;13.15;;;2.90;99.90;;;;;;5082486;28;20273;-75
2023/11/30 05:09:00;;;;;;;15.68;12.82;;;2.90;99.90;;;;;;5071597;28;20226;-76
2023/11/30 05:11:45;;;;;;;19.77;13.95;;;2.90;99.90;;;;;;5081177;28;20766;-76
2023/11/30 05:14:31;;;;;;;16.05;13.18;;;2.90;99.90;;;;;;5079654;28;20201;-74
2023/11/30 05:17:17;;;;;;;17.52;13.48;;;2.90;99.90;;;;;;5066944;28;20203;-76
2023/11/30 05:20:03;;;;;;;21.30;14.38;;;2.90;99.90;;;;;;5079909;28;20207;-76
2023/11/30 05:22:48;;;;;;;19.23;14.32;;;2.90;99.90;;;;;;5068781;28;20327;-76
2023/11/30 05:25:36;;;;;;;21.73;15.85;;;3.10;99.90;;;;;;5069875;28;20208;-78
2023/11/30 05:28:21;;;;;;;20.20;15.80;;;3.10;99.90;;;;;;5067496;28;20212;-75
2023/11/30 05:31:07;;;;;;;18.88;14.57;;;3.00;99.90;;;;;;5072396;28;20337;-76
2023/11/30 05:33:54;;;;;;;21.55;14.30;;;3.00;99.90;;;;;;5076332;28;20710;-76
2023/11/30 05:36:39;;;;;;;17.73;14.15;;;2.90;99.90;;;;;;5071477;28;20342;-77
2023/11/30 05:39:25;;;;;;;18.25;14.27;;;2.90;99.90;;;;;;5071750;28;20200;-76
2023/11/30 05:42:12;;;;;;;19.85;15.23;;;3.00;99.90;;;;;;5072292;28;20302;-77
2023/11/30 05:44:58;;;;;;;18.40;13.88;;;3.00;99.90;;;;;;5071598;28;20215;-77
2023/11/30 05:47:43;;;;;;;18.92;13.23;;;3.00;99.90;;;;;;5075887;28;20208;-77
2023/11/30 05:50:29;;;;;;;18.98;14.63;;;3.10;99.90;;;;;;5074219;28;20678;-76
2023/11/30 05:53:15;;;;;;;19.33;14.50;;;3.10;99.90;;;;;;5069681;28;20291;-76
2023/11/30 05:56:00;;;;;;;14.63;11.50;;;3.10;99.90;;;;;;5064761;28;20207;-76
2023/11/30 05:58:47;;;;;;;16.40;12.82;;;3.10;99.90;;;;;;5076612;28;20208;-76
2023/11/30 06:01:33;;;;;;;15.35;11.52;;;3.10;99.90;;;;;;5074467;28;20196;-76
2023/11/30 06:04:18;;;;;;;16.48;12.68;;;3.00;99.90;;;;;;5071955;28;20317;-76
2023/11/30 06:07:04;;;;;;;17.90;12.77;;;3.00;99.90;;;;;;5070944;28;20266;-77
2023/11/30 06:09:49;;;;;;;19.52;13.70;;;3.00;99.90;;;;;;5073389;28;20335;-76
2023/11/30 06:12:35;;;;;;;15.80;12.45;;;2.90;99.90;;;;;;5079507;28;20273;-75
2023/11/30 06:15:23;;;;;;;18.08;13.65;;;2.90;99.90;;;;;;5071431;28;20270;-77
2023/11/30 06:18:08;;;;;;;17.83;13.18;;;2.90;99.90;;;;;;5074272;28;20982;-76
2023/11/30 06:20:54;;;;;;;18.35;13.90;;;2.80;99.90;;;;;;5078497;28;20203;-76
2023/11/30 06:23:39;;;;;;;17.77;13.65;;;2.80;99.90;;;;;;5080218;28;20904;-76
2023/11/30 06:26:25;;;;;;;16.45;13.13;;;2.70;99.90;;;;;;5074168;28;20291;-77
2023/11/30 06:29:11;;;;;;;18.58;13.60;;;2.70;99.90;;;;;;5072940;28;20322;-77
2023/11/30 06:32:01;;;;;;;15.50;12.73;;;2.70;99.90;;;;;;5077193;28;20245;-76
2023/11/30 06:34:46;;;;;;;16.40;12.88;;;2.60;99.90;;;;;;5077013;28;20278;-77
2023/11/30 06:37:32;;;;;;;15.30;11.88;;;2.60;99.90;;;;;;5070233;28;20208;-77
2023/11/30 06:40:18;;;;;;;18.13;12.65;;;2.60;99.90;;;;;;5066962;28;20220;-76
2023/11/30 06:43:03;;;;;;;15.50;12.93;;;2.60;99.90;;;;;;5073972;28;20231;-76
2023/11/30 06:45:49;;;;;;;15.80;12.98;;;2.60;99.90;;;;;;5072878;28;20239;-77
2023/11/30 06:48:36;;;;;;;20.35;14.10;;;2.60;99.90;;;;;;5068141;28;20266;-77
2023/11/30 06:51:21;;;;;;;17.30;13.73;;;2.50;99.90;;;;;;5069001;28;20235;-76
2023/11/30 06:54:07;;;;;;;20.35;14.50;;;2.50;99.90;;;;;;5079266;28;20269;-77
2023/11/30 06:56:53;;;;;;;17.73;13.70;;;2.50;99.90;;;;;;5077581;28;20203;-76
2023/11/30 06:59:39;;;;;;;17.33;12.15;;;2.50;99.90;;;;;;5075845;28;20657;-76
2023/11/30 07:02:24;;;;;;;17.55;13.18;;;2.40;99.90;;;;;;5071440;28;20224;-76
2023/11/30 07:05:12;;;;;;;18.60;13.88;;;2.50;99.90;;;;;;5075800;28;20285;-76
2023/11/30 07:07:58;;;;;;;21.63;12.85;;;2.50;99.90;;;;;;5075972;28;20206;-76
2023/11/30 07:10:43;;;;;;;18.23;13.70;;;2.40;99.90;;;;;;5077911;28;20211;-77
2023/11/30 07:13:29;;;;;;;21.77;13.55;;;2.50;99.90;;;;;;5077438;28;20219;-76
2023/11/30 07:16:15;;;;;;;18.10;14.40;;;2.40;99.90;;;;;;5092298;28;20200;-76
2023/11/30 07:19:00;;;;;;;21.33;15.80;;;2.50;99.90;;;;;;5079289;28;20207;-75
2023/11/30 07:21:50;;;;;;;22.98;16.83;;;2.50;99.90;;;;;;5075683;28;20375;-77
2023/11/30 07:24:36;;;;;;;25.30;17.27;;;2.50;99.90;;;;;;5094352;22;20228;-74
2023/11/30 07:27:22;;;;;;;33.75;17.10;;;2.60;99.90;;;;;;5056171;28;20325;-74
2023/11/30 07:30:10;;;;;;;22.92;16.88;;;2.60;99.90;;;;;;5073643;28;20242;-75
2023/11/30 07:32:56;;;;;;;24.13;16.42;;;2.60;99.90;;;;;;5079210;28;20236;-74
2023/11/30 07:35:42;;;;;;;20.40;15.90;;;2.50;99.90;;;;;;5064302;28;20215;-74
2023/11/30 07:38:29;;;;;;;25.98;18.15;;;2.50;99.90;;;;;;5071084;28;20683;-74
2023/11/30 07:41:17;;;;;;;34.75;18.08;;;2.50;99.90;;;;;;5081759;28;20200;-74
2023/11/30 07:44:03;;;;;;;24.38;17.70;;;2.50;99.90;;;;;;5071223;28;20232;-74
2023/11/30 07:46:48;;;;;;;63.15;17.40;;;2.50;99.90;;;;;;5083819;28;20253;-74
2023/11/30 07:49:34;;;;;;;24.40;17.20;;;2.60;99.90;;;;;;5072741;28;20322;-74
2023/11/30 07:52:20;;;;;;;23.38;17.02;;;2.60;99.90;;;;;;5073249;28;20920;-74
2023/11/30 07:55:07;;;;;;;78.93;19.30;;;2.50;99.90;;;;;;5073685;28;20298;-74
2023/11/30 07:57:53;;;;;;;23.40;17.05;;;2.50;99.90;;;;;;5078511;28;20207;-74
2023/11/30 08:00:39;;;;;;;24.67;17.80;;;2.50;99.90;;;;;;5073278;28;20557;-74
2023/11/30 08:03:24;;;;;;;153.55;18.20;;;2.60;99.90;;;;;;5068082;28;20227;-74
2023/11/30 08:06:10;;;;;;;137.50;18.30;;;2.70;99.90;;;;;;5071863;28;20258;-74
2023/11/30 08:08:56;;;;;;;21.10;14.32;;;2.60;99.90;;;;;;5078688;28;20211;-74
2023/11/30 08:11:43;;;;;;;21.77;15.20;;;2.50;99.90;;;;;;5079915;28;20331;-74
2023/11/30 08:14:29;;;;;;;27.90;14.02;;;2.40;99.90;;;;;;5071893;28;20219;-74
2023/11/30 08:17:15;;;;;;;30.35;15.30;;;2.40;99.90;;;;;;5068322;28;20562;-73
2023/11/30 08:20:01;;;;;;;52.28;16.38;;;2.40;99.90;;;;;;5068253;28;20208;-73
2023/11/30 08:22:46;;;;;;;42.80;14.40;;;2.40;99.90;;;;;;5071335;28;20197;-73
2023/11/30 08:25:32;;;;;;;66.18;13.88;;;2.30;99.90;;;;;;5066835;28;20281;-74
2023/11/30 08:28:19;;;;;;;31.48;13.10;;;2.30;99.90;;;;;;5069562;28;20219;-73
2023/11/30 08:31:05;;;;;;;17.75;13.73;;;2.20;99.90;;;;;;5072412;28;20761;-73
2023/11/30 08:33:51;;;;;;;16.38;13.80;;;2.30;99.90;;;;;;5066458;28;20766;-73
2023/11/30 08:36:36;;;;;;;18.83;14.98;;;2.40;99.90;;;;;;5067116;28;20624;-73
2023/11/30 08:39:23;;;;;;;14.80;12.30;;;2.40;99.90;;;;;;5062003;28;20208;-73
2023/11/30 08:42:09;;;;;;;16.88;13.15;;;2.60;99.90;;;;;;5061809;28;20246;-73
2023/11/30 08:44:56;;;;;;;14.45;12.90;;;2.60;99.90;;;;;;5070936;28;20723;-73
2023/11/30 08:47:43;;;;;;;20.58;15.57;;;2.70;99.90;;;;;;5071753;28;20278;-73
2023/11/30 08:50:28;;;;;;;27.20;18.08;;;2.80;99.90;;;;;;5070513;28;20566;-73
2023/11/30 08:53:15;;;;;;;29.52;20.10;;;2.80;99.90;;;;;;5067180;28;20225;-73
2023/11/30 08:56:01;;;;;;;32.75;24.63;;;2.80;99.90;;;;;;5063966;28;20212;-73
2023/11/30 08:58:47;;;;;;;37.72;26.05;;;2.80;99.90;;;;;;5080732;28;20204;-73
2023/11/30 09:01:34;;;;;;;40.55;24.90;;;2.80;99.90;;;;;;5067614;28;20741;-74
2023/11/30 09:04:19;;;;;;;39.85;22.27;;;2.90;99.90;;;;;;5079978;28;20260;-73
2023/11/30 09:07:05;;;;;;;34.70;22.50;;;2.90;99.90;;;;;;5064267;28;20207;-74
2023/11/30 09:09:50;;;;;;;34.22;22.95;;;3.00;99.90;;;;;;5081563;28;20748;-73
2023/11/30 09:12:36;;;;;;;39.42;21.40;;;3.00;99.90;;;;;;5076095;28;20278;-75
2023/11/30 09:15:22;;;;;;;28.77;21.77;;;3.00;99.90;;;;;;5066785;28;20674;-75
2023/11/30 09:18:10;;;;;;;43.50;23.08;;;3.00;99.90;;;;;;5065142;28;20200;-75
2023/11/30 09:20:56;;;;;;;28.23;21.88;;;2.90;99.90;;;;;;5077258;28;20688;-75
2023/11/30 09:23:42;;;;;;;26.75;19.17;;;2.90;99.90;;;;;;5073946;28;20231;-74
2023/11/30 09:26:27;;;;;;;31.90;20.90;;;3.00;99.90;;;;;;5075274;28;20196;-74
2023/11/30 09:29:13;;;;;;;26.10;20.23;;;3.10;99.90;;;;;;5070317;28;20212;-75
2023/11/30 09:31:59;;;;;;;31.90;19.42;;;3.20;99.90;;;;;;5075227;28;20211;-74
2023/11/30 09:34:46;;;;;;;24.83;19.13;;;3.10;99.90;;;;;;5074422;28;20267;-74
2023/11/30 09:37:32;;;;;;;23.48;18.63;;;3.20;99.90;;;;;;5078647;28;20207;-74
2023/11/30 09:40:18;;;;;;;25.70;19.50;;;3.10;99.90;;;;;;5077108;28;20207;-74
2023/11/30 09:43:04;;;;;;;28.15;19.75;;;3.20;99.90;;;;;;5071564;28;20825;-75
2023/11/30 09:45:54;;;;;;;28.15;19.48;;;3.20;99.90;;;;;;5072461;28;20568;-74
2023/11/30 09:48:40;;;;;;;34.42;18.33;;;3.10;99.90;;;;;;5075612;28;20679;-74
2023/11/30 09:51:28;;;;;;;31.08;20.67;;;3.20;99.90;;;;;;5077020;28;20743;-74
2023/11/30 09:54:14;;;;;;;24.98;20.15;;;3.10;99.90;;;;;;5063025;28;20220;-74
2023/11/30 09:57:00;;;;;;;29.20;20.00;;;3.10;99.90;;;;;;5074850;28;20293;-74
2023/11/30 09:59:46;;;;;;;30.45;21.88;;;3.20;99.90;;;;;;5080540;28;20206;-74
2023/11/30 10:02:31;;;;;;;38.03;21.40;;;3.10;99.90;;;;;;5073471;28;20211;-75
2023/11/30 10:05:17;;;;;;;37.20;22.25;;;3.20;99.90;;;;;;5079021;28;20223;-75
2023/11/30 10:08:04;;;;;;;25.42;19.35;;;3.40;99.90;;;;;;5086804;28;20285;-75
2023/11/30 10:10:50;;;;;;;24.45;19.38;;;3.50;99.90;;;;;;5076981;28;20200;-75
2023/11/30 10:13:35;;;;;;;25.10;18.15;;;3.70;99.90;;;;;;5075118;28;20213;-75
2023/11/30 10:16:21;;;;;;;20.45;17.20;;;3.80;99.90;;;;;;5075059;28;20200;-75
2023/11/30 10:19:07;;;;;;;22.60;18.50;;;3.90;99.90;;;;;;5075544;28;20203;-75
2023/11/30 10:21:55;;;;;;;22.73;18.45;;;4.00;99.90;;;;;;5078555;28;20689;-75
2023/11/30 10:24:42;;;;;;;21.17;17.30;;;4.10;99.90;;;;;;5078243;28;20270;-75
2023/11/30 10:27:30;;;;;;;20.15;16.65;;;4.20;99.90;;;;;;5085557;28;20200;-75
2023/11/30 10:30:18;;;;;;;21.45;17.35;;;4.30;99.90;;;;;;5074862;28;20204;-75
2023/11/30 10:33:06;;;;;;;22.25;16.83;;;4.40;99.90;;;;;;5081238;28;20227;-75
2023/11/30 10:35:53;;;;;;;20.92;16.63;;;4.60;99.90;;;;;;5076361;28;20279;-75
2023/11/30 10:38:42;;;;;;;22.48;17.20;;;4.80;99.90;;;;;;5081241;28;20226;-75
2023/11/30 10:41:43;;;;;;;19.73;14.75;;;5.00;99.90;;;;;;5077302;28;20204;-75
2023/11/30 10:44:31;;;;;;;21.15;15.43;;;5.00;99.90;;;;;;5085393;28;20267;-75
2023/11/30 10:47:19;;;;;;;21.45;16.90;;;5.00;99.90;;;;;;5078580;28;20267;-75
2023/11/30 10:50:06;;;;;;;17.60;14.75;;;5.00;99.90;;;;;;5073223;28;20204;-75
2023/11/30 10:52:53;;;;;;;19.52;14.88;;;5.00;99.90;;;;;;5077319;28;20245;-74
2023/11/30 10:55:39;;;;;;;16.52;13.05;;;5.10;99.90;;;;;;5073877;28;20212;-75
2023/11/30 10:58:27;;;;;;;12.68;11.00;;;5.00;99.90;;;;;;5088198;28;20579;-75
2023/11/30 11:01:14;;;;;;;13.85;10.50;;;5.00;99.90;;;;;;5077145;28;20205;-75
2023/11/30 11:03:59;;;;;;;14.18;10.55;;;5.00;99.90;;;;;;5083526;28;20231;-75
2023/11/30 11:06:45;;;;;;;12.90;9.90;;;5.00;99.90;;;;;;5074593;28;20208;-75
2023/11/30 11:09:41;;;;;;;10.90;8.77;;;5.10;99.90;;;;;;5089172;28;20694;-75
2023/11/30 11:12:33;;;;;;;11.70;8.30;;;5.20;99.90;;;;;;5068187;28;20725;-75
2023/11/30 11:15:22;;;;;;;11.93;10.50;;;5.20;99.90;;;;;;5074927;28;20197;-75
2023/11/30 11:18:16;;;;;;;10.90;8.73;;;5.40;99.90;;;;;;5072911;28;20204;-75
2023/11/30 11:21:01;;;;;;;8.23;6.75;;;5.40;99.90;;;;;;5076695;28;20219;-75
2023/11/30 11:23:49;;;;;;;6.45;5.80;;;5.50;99.90;;;;;;5080426;28;20385;-75
2023/11/30 11:26:45;;;;;;;7.25;5.15;;;5.40;99.90;;;;;;5069631;28;20560;-75
2023/11/30 11:29:31;;;;;;;9.75;6.75;;;5.50;99.90;;;;;;5078238;28;20206;-75
2023/11/30 11:32:19;;;;;;;9.05;6.47;;;5.60;99.90;;;;;;5079275;28;20211;-75
2023/11/30 11:35:05;;;;;;;11.98;6.13;;;5.60;99.90;;;;;;5076216;28;20199;-75
2023/11/30 11:37:51;;;;;;;10.50;5.60;;;5.70;99.90;;;;;;5077924;28;20658;-75
2023/11/30 11:40:39;;;;;;;7.57;5.43;;;5.80;99.90;;;;;;5075376;28;20204;-75
2023/11/30 11:43:25;;;;;;;8.35;4.78;;;5.90;99.90;;;;;;5077839;28;20222;-75
2023/11/30 11:46:11;;;;;;;6.43;3.95;;;5.90;99.90;;;;;;5081497;28;20243;-75
2023/11/30 11:48:58;;;;;;;10.38;4.82;;;5.90;99.90;;;;;;5087785;28;20753;-75
2023/11/30 11:51:44;;;;;;;8.32;4.20;;;5.90;99.90;;;;;;5075424;28;20213;-75
2023/11/30 11:54:30;;;;;;;7.50;4.70;;;5.90;99.90;;;;;;5081188;28;20232;-75
2023/11/30 11:57:16;;;;;;;5.07;3.83;;;5.80;99.90;;;;;;5072070;28;20427;-75
2023/11/30 12:00:01;;;;;;;6.85;5.07;;;5.70;99.90;;;;;;5084067;28;20294;-75
2023/11/30 12:02:47;;;;;;;4.57;3.90;;;5.70;99.90;;;;;;5076549;28;20343;-75
2023/11/30 12:05:34;;;;;;;6.65;4.07;;;5.80;99.90;;;;;;5070424;28;20307;-75
2023/11/30 12:08:30;;;;;;;6.00;4.13;;;5.80;99.90;;;;;;5083820;28;20215;-75
2023/11/30 12:11:18;;;;;;;5.30;4.30;;;5.90;99.90;;;;;;5080847;28;20203;-75
2023/11/30 12:14:05;;;;;;;7.80;4.10;;;5.80;99.90;;;;;;5081050;28;20223;-75
2023/11/30 12:16:51;;;;;;;8.90;4.15;;;5.80;99.90;;;;;;5072765;28;20208;-75
2023/11/30 12:19:37;;;;;;;4.18;3.65;;;5.90;99.90;;;;;;5084375;28;20204;-75
2023/11/30 12:22:24;;;;;;;5.18;3.97;;;5.90;99.90;;;;;;5090867;28;20622;-75
2023/11/30 12:25:10;;;;;;;7.80;3.80;;;6.00;99.90;;;;;;5087399;28;20711;-75
2023/11/30 12:27:55;;;;;;;6.35;3.90;;;6.20;99.90;;;;;;5077913;28;20826;-75
2023/11/30 12:30:41;;;;;;;5.07;4.30;;;6.30;99.90;;;;;;5072482;28;20232;-75
2023/11/30 12:33:27;;;;;;;6.47;4.15;;;6.50;99.90;;;;;;5084523;28;20229;-75
2023/11/30 12:36:14;;;;;;;4.00;3.20;;;6.80;99.90;;;;;;5072991;28;20767;-75
2023/11/30 12:39:00;;;;;;;8.07;3.53;;;6.90;99.90;;;;;;5077448;28;20213;-74
2023/11/30 12:41:46;;;;;;;4.13;3.05;;;7.00;99.90;;;;;;5079702;28;20208;-76
2023/11/30 12:44:33;;;;;;;5.72;3.83;;;6.90;99.90;;;;;;5075978;28;20229;-75
2023/11/30 12:47:18;;;;;;;3.88;3.13;;;6.90;99.90;;;;;;5079794;28;20601;-75
2023/11/30 12:50:05;;;;;;;4.75;2.78;;;6.90;99.90;;;;;;5076336;28;20576;-75
2023/11/30 12:52:51;;;;;;;5.70;3.30;;;7.00;99.90;;;;;;5077456;28;20233;-75
2023/11/30 12:55:38;;;;;;;7.07;4.67;;;7.00;99.90;;;;;;5086973;28;20785;-74
2023/11/30 12:58:24;;;;;;;7.22;5.13;;;6.90;99.90;;;;;;5082260;28;20947;-75
2023/11/30 13:01:10;;;;;;;7.15;4.40;;;6.80;99.90;;;;;;5077888;28;20239;-75
2023/11/30 13:03:56;;;;;;;5.47;3.70;;;6.80;99.90;;;;;;5076244;28;20220;-75
2023/11/30 13:06:42;;;;;;;5.53;4.10;;;6.60;99.90;;;;;;5075134;28;20421;-75
2023/11/30 13:09:29;;;;;;;5.95;4.05;;;6.50;99.90;;;;;;5074559;28;20475;-75
2023/11/30 13:12:16;;;;;;;4.18;3.30;;;6.40;99.90;;;;;;5083734;28;20578;-75
2023/11/30 13:15:03;;;;;;;8.35;3.88;;;6.30;99.90;;;;;;5084330;28;20595;-75
2023/11/30 13:17:49;;;;;;;4.45;3.63;;;6.10;99.90;;;;;;5074988;28;20244;-75
2023/11/30 13:20:35;;;;;;;5.72;4.50;;;6.10;99.90;;;;;;5078627;28;20309;-75
2023/11/30 13:23:20;;;;;;;7.60;4.97;;;6.10;99.90;;;;;;5075403;28;20231;-74
2023/11/30 13:26:07;;;;;;;8.15;6.60;;;6.10;99.90;;;;;;5077500;28;20233;-74
2023/11/30 13:28:54;;;;;;;5.88;4.50;;;6.20;99.90;;;;;;5078557;28;20209;-73
2023/11/30 13:31:40;;;;;;;5.85;4.35;;;6.10;99.90;;;;;;5078562;28;20256;-75
2023/11/30 13:34:26;;;;;;;6.50;5.67;;;6.10;99.90;;;;;;5075849;28;20227;-74
2023/11/30 13:37:12;;;;;;;6.25;5.10;;;6.10;99.90;;;;;;5069031;28;20417;-78
2023/11/30 13:39:57;;;;;;;7.28;4.60;;;6.10;99.90;;;;;;5074592;28;20279;-76
2023/11/30 13:42:43;;;;;;;7.85;5.80;;;6.10;99.90;;;;;;5067566;28;20276;-74
2023/11/30 13:45:30;;;;;;;6.78;5.20;;;6.10;99.90;;;;;;5071666;28;20231;-74
2023/11/30 13:48:16;;;;;;;7.55;4.30;;;6.10;99.90;;;;;;5077566;28;20548;-74
2023/11/30 13:51:02;;;;;;;8.10;4.70;;;5.90;99.90;;;;;;5077262;28;20204;-74
2023/11/30 13:53:49;;;;;;;8.60;4.15;;;5.90;99.90;;;;;;5079197;28;20595;-74
2023/11/30 13:56:35;;;;;;;5.15;3.85;;;5.90;99.90;;;;;;5073754;28;20205;-74
2023/11/30 13:59:21;;;;;;;6.15;4.95;;;5.90;99.90;;;;;;5079416;28;20691;-74
2023/11/30 14:02:08;;;;;;;5.15;3.92;;;5.80;99.90;;;;;;5082698;28;20290;-74
2023/11/30 14:04:53;;;;;;;5.45;4.10;;;5.80;99.90;;;;;;5073063;28;20363;-74
2023/11/30 14:07:39;;;;;;;6.30;4.60;;;5.80;99.90;;;;;;5070132;28;20221;-74
2023/11/30 14:10:27;;;;;;;5.97;5.38;;;5.80;99.90;;;;;;5075520;28;20219;-74
2023/11/30 14:13:13;;;;;;;6.90;4.68;;;5.70;99.90;;;;;;5072120;28;20262;-74
2023/11/30 14:15:58;;;;;;;5.60;5.00;;;5.70;99.90;;;;;;5081550;28;20204;-75
2023/11/30 14:18:45;;;;;;;7.40;5.00;;;5.70;99.90;;;;;;5078306;28;20201;-74